createdAt,value
2023-04-17T00:01:36.350Z,101654.59
2023-04-17T00:04:08.353Z,101647.50
2023-04-17T00:06:40.013Z,101648.97
2023-04-17T00:09:12.061Z,101655.75
2023-04-17T00:11:43.711Z,101654.94
2023-04-17T00:14:15.460Z,101653.94
2023-04-17T00:16:47.041Z,101648.97
2023-04-17T00:19:18.816Z,101658.72
2023-04-17T00:21:50.256Z,101646.44
2023-04-17T00:24:21.880Z,101644.97
2023-04-17T00:26:53.355Z,101651.47
2023-04-17T00:29:24.976Z,101655.00
2023-04-17T00:31:56.486Z,101649.88
2023-04-17T00:34:27.953Z,101653.00
2023-04-17T00:36:59.674Z,101647.34
2023-04-17T00:39:31.122Z,101650.53
2023-04-17T00:42:02.903Z,101649.69
2023-04-17T00:44:34.338Z,101648.56
2023-04-17T00:47:05.977Z,101650.56
2023-04-17T00:49:37.423Z,101651.56
2023-04-17T00:52:08.954Z,101647.06
2023-04-17T00:54:40.400Z,101655.75
2023-04-17T00:57:12.189Z,101652.16
2023-04-17T00:59:43.646Z,101651.44
2023-04-17T01:02:15.329Z,101659.22
2023-04-17T01:04:46.882Z,101653.09
2023-04-17T01:07:18.717Z,101650.25
2023-04-17T01:09:50.168Z,101649.13
2023-04-17T01:12:22.074Z,101652.78
2023-04-17T01:14:53.525Z,101653.09
2023-04-17T01:17:25.264Z,101654.78
2023-04-17T01:19:56.721Z,101647.66
2023-04-17T01:22:28.430Z,101658.94
2023-04-17T01:24:59.882Z,101656.97
2023-04-17T01:27:31.703Z,101653.31
2023-04-17T01:30:03.192Z,101650.50
2023-04-17T01:32:35.018Z,101650.03
2023-04-17T01:35:06.505Z,101656.16
2023-04-17T01:37:38.491Z,101653.31
2023-04-17T01:40:09.957Z,101654.50
2023-04-17T01:42:41.781Z,101657.84
2023-04-17T01:45:13.251Z,101658.56
2023-04-17T01:47:45.119Z,101659.38
2023-04-17T01:50:16.620Z,101659.56
2023-04-17T01:52:48.582Z,101663.56
2023-04-17T01:55:20.025Z,101662.56
2023-04-17T01:57:51.473Z,101660.72
2023-04-17T02:00:22.910Z,101659.91
2023-04-17T02:02:54.462Z,101660.22
2023-04-17T02:05:25.961Z,101663.69
2023-04-17T02:07:57.706Z,101663.22
2023-04-17T02:10:29.162Z,101671.03
2023-04-17T02:13:00.912Z,101670.22
2023-04-17T02:15:32.348Z,101670.75
2023-04-17T02:18:04.160Z,101681.53
2023-04-17T02:20:35.648Z,101678.22
2023-04-17T02:23:07.339Z,101680.69
2023-04-17T02:25:38.778Z,101670.63
2023-04-17T02:28:10.408Z,101677.25
2023-04-17T02:30:41.938Z,101682.91
2023-04-17T02:33:13.760Z,101684.41
2023-04-17T02:35:45.203Z,101687.53
2023-04-17T02:38:16.697Z,101679.28
2023-04-17T02:40:48.144Z,101682.94
2023-04-17T02:43:19.605Z,101674.31
2023-04-17T02:45:51.072Z,101674.19
2023-04-17T02:48:22.641Z,101677.34
2023-04-17T02:50:54.096Z,101677.03
2023-04-17T02:53:25.673Z,101687.63
2023-04-17T02:55:57.153Z,101682.84
2023-04-17T02:58:28.589Z,101686.13
2023-04-17T03:01:00.508Z,101685.16
2023-04-17T03:03:32.173Z,101693.09
2023-04-17T03:06:03.867Z,101694.44
2023-04-17T03:08:35.304Z,101694.59
2023-04-17T03:11:07.119Z,101691.28
2023-04-17T03:13:38.579Z,101688.31
2023-04-17T03:16:10.387Z,101701.22
2023-04-17T03:18:41.898Z,101689.50
2023-04-17T03:21:13.684Z,101703.06
2023-04-17T03:23:45.132Z,101700.91
2023-04-17T03:26:17.078Z,101703.56
2023-04-17T03:28:48.536Z,101711.16
2023-04-17T03:31:21.318Z,101712.31
2023-04-17T03:33:53.822Z,101708.69
2023-04-17T03:36:25.643Z,101715.81
2023-04-17T03:38:57.092Z,101711.50
2023-04-17T03:41:29.088Z,101717.78
2023-04-17T03:44:00.539Z,101720.09
2023-04-17T03:46:32.310Z,101716.78
2023-04-17T03:49:03.753Z,101723.25
2023-04-17T03:51:35.735Z,101723.41
2023-04-17T03:54:07.181Z,101718.75
2023-04-17T03:56:38.971Z,101725.88
2023-04-17T03:59:10.639Z,101725.19
2023-04-17T04:01:43.759Z,101728.81
2023-04-17T04:04:16.332Z,101729.16
2023-04-17T04:06:48.168Z,101736.91
2023-04-17T04:09:19.612Z,101733.78
2023-04-17T04:11:51.111Z,101739.56
2023-04-17T04:14:22.551Z,101738.28
2023-04-17T04:16:54.350Z,101739.75
2023-04-17T04:19:25.789Z,101742.09
2023-04-17T04:21:57.652Z,101739.47
2023-04-17T04:24:29.108Z,101740.94
2023-04-17T04:27:01.119Z,101751.72
2023-04-17T04:29:32.560Z,101746.25
2023-04-17T04:32:04.241Z,101747.91
2023-04-17T04:34:35.772Z,101751.22
2023-04-17T04:37:07.672Z,101751.03
2023-04-17T04:39:39.141Z,101749.72
2023-04-17T04:42:10.995Z,101756.50
2023-04-17T04:44:42.433Z,101753.34
2023-04-17T04:47:14.254Z,101755.31
2023-04-17T04:49:45.724Z,101761.94
2023-04-17T04:52:17.260Z,101761.44
2023-04-17T04:54:48.707Z,101756.97
2023-04-17T04:57:20.718Z,101764.28
2023-04-17T04:59:52.169Z,101765.78
2023-04-17T05:02:24.057Z,101768.75
2023-04-17T05:04:55.653Z,101763.28
2023-04-17T05:07:27.545Z,101769.56
2023-04-17T05:09:59.046Z,101772.03
2023-04-17T05:12:30.890Z,101776.19
2023-04-17T05:15:02.334Z,101773.69
2023-04-17T05:17:34.144Z,101780.47
2023-04-17T05:20:05.630Z,101783.97
2023-04-17T05:22:37.381Z,101783.13
2023-04-17T05:25:08.810Z,101793.50
2023-04-17T05:27:40.630Z,101796.34
2023-04-17T05:30:12.078Z,101796.16
2023-04-17T05:32:43.988Z,101803.13
2023-04-17T05:35:15.537Z,101802.78
2023-04-17T05:37:47.354Z,101820.31
2023-04-17T05:40:18.817Z,101802.03
2023-04-17T05:42:50.353Z,101802.72
2023-04-17T05:45:24.196Z,101807.00
2023-04-17T05:47:57.290Z,101805.47
2023-04-17T05:50:28.752Z,101814.53
2023-04-17T05:53:00.604Z,101816.22
2023-04-17T05:55:32.056Z,101810.75
2023-04-17T05:58:10.478Z,101809.44
2023-04-17T06:00:53.875Z,101812.25
2023-04-17T06:03:25.781Z,101819.22
2023-04-17T06:05:57.731Z,101818.69
2023-04-17T06:08:29.725Z,101820.88
2023-04-17T06:11:01.187Z,101822.19
2023-04-17T06:13:33.096Z,101821.47
2023-04-17T06:16:04.570Z,101836.28
2023-04-17T06:18:36.344Z,101821.19
2023-04-17T06:21:07.785Z,101821.13
2023-04-17T06:23:39.834Z,101828.97
2023-04-17T06:26:11.286Z,101833.09
2023-04-17T06:28:43.058Z,101844.41
2023-04-17T06:31:14.576Z,101834.63
2023-04-17T06:33:46.367Z,101840.63
2023-04-17T06:36:17.819Z,101836.22
2023-04-17T06:38:49.583Z,101836.97
2023-04-17T06:41:21.028Z,101832.63
2023-04-17T06:43:52.834Z,101839.44
2023-04-17T06:46:24.345Z,101838.84
2023-04-17T06:48:56.103Z,101844.75
2023-04-17T06:51:27.558Z,101845.81
2023-04-17T06:53:59.327Z,101851.00
2023-04-17T06:56:30.792Z,101851.50
2023-04-17T06:59:03.160Z,101850.34
2023-04-17T07:01:34.811Z,101856.13
2023-04-17T07:04:06.713Z,101857.41
2023-04-17T07:06:38.256Z,101857.03
2023-04-17T07:09:10.164Z,101859.84
2023-04-17T07:11:41.622Z,101868.00
2023-04-17T07:14:13.523Z,101865.31
2023-04-17T07:16:45.035Z,101877.19
2023-04-17T07:19:16.858Z,101869.34
2023-04-17T07:21:48.310Z,101873.19
2023-04-17T07:24:20.172Z,101877.28
2023-04-17T07:26:51.626Z,101876.69
2023-04-17T07:29:23.299Z,101882.31
2023-04-17T07:31:54.837Z,101884.19
2023-04-17T07:34:26.669Z,101884.00
2023-04-17T07:36:58.124Z,101896.25
2023-04-17T07:39:29.846Z,101894.09
2023-04-17T07:42:01.300Z,101903.53
2023-04-17T07:44:33.317Z,101898.22
2023-04-17T07:47:04.844Z,101904.81
2023-04-17T07:49:36.681Z,101913.81
2023-04-17T07:52:08.132Z,101911.41
2023-04-17T07:54:40.105Z,101915.72
2023-04-17T07:57:11.554Z,101915.88
2023-04-17T07:59:43.579Z,101919.97
2023-04-17T08:02:15.081Z,101922.97
2023-04-17T08:04:46.863Z,101914.94
2023-04-17T08:07:18.456Z,101921.50
2023-04-17T08:09:49.975Z,101918.41
2023-04-17T08:12:21.457Z,101924.63
2023-04-17T08:14:52.943Z,101926.56
2023-04-17T08:17:24.449Z,101927.06
2023-04-17T08:19:55.967Z,101929.78
2023-04-17T08:22:27.433Z,101931.00
2023-04-17T08:24:59.228Z,101933.28
2023-04-17T08:27:30.711Z,101931.81
2023-04-17T08:30:02.208Z,101941.09
2023-04-17T08:32:33.758Z,101776.28
2023-04-17T08:35:05.809Z,101935.75
2023-04-17T08:37:37.241Z,101947.22
2023-04-17T08:40:09.128Z,101946.97
2023-04-17T08:42:40.633Z,101942.22
2023-04-17T08:45:12.148Z,101945.66
2023-04-17T08:47:43.634Z,101940.63
2023-04-17T08:50:15.513Z,101946.41
2023-04-17T08:52:46.971Z,101949.44
2023-04-17T08:55:18.476Z,101948.81
2023-04-17T08:57:49.955Z,101950.53
2023-04-17T09:00:21.966Z,101954.03
2023-04-17T09:02:53.765Z,101951.38
2023-04-17T09:05:25.335Z,101958.13
2023-04-17T09:07:56.793Z,101958.66
2023-04-17T09:10:28.274Z,101960.22
2023-04-17T09:13:00.155Z,101958.25
2023-04-17T09:15:31.710Z,101962.81
2023-04-17T09:18:03.303Z,101952.59
2023-04-17T09:20:34.822Z,101958.31
2023-04-17T09:23:06.547Z,101963.31
2023-04-17T09:25:38.019Z,101952.06
2023-04-17T09:28:09.809Z,101958.38
2023-04-17T09:30:41.255Z,101959.81
2023-04-17T09:33:13.096Z,101960.28
2023-04-17T09:35:44.656Z,101962.31
2023-04-17T09:38:16.637Z,101960.47
2023-04-17T09:40:48.096Z,101967.44
2023-04-17T09:43:19.878Z,101947.28
2023-04-17T09:45:51.379Z,101954.72
2023-04-17T09:48:23.222Z,101956.72
2023-04-17T09:50:54.720Z,101956.47
2023-04-17T09:53:26.210Z,101967.16
2023-04-17T09:55:57.659Z,101957.75
2023-04-17T09:58:29.426Z,101960.41
2023-04-17T10:01:00.916Z,101956.06
2023-04-17T10:03:35.066Z,101962.22
2023-04-17T10:06:08.719Z,101954.09
2023-04-17T10:08:40.544Z,101961.63
2023-04-17T10:11:11.990Z,101962.84
2023-04-17T10:13:43.776Z,101955.88
2023-04-17T10:16:15.318Z,101950.94
2023-04-17T10:18:47.140Z,101951.72
2023-04-17T10:21:18.594Z,101949.06
2023-04-17T10:23:50.047Z,101950.09
2023-04-17T10:26:21.497Z,101952.69
2023-04-17T10:28:52.969Z,101946.13
2023-04-17T10:31:24.461Z,101943.09
2023-04-17T10:33:55.963Z,101948.03
2023-04-17T10:36:27.426Z,101945.66
2023-04-17T10:38:59.141Z,101949.44
2023-04-17T10:41:30.626Z,101947.94
2023-04-17T10:44:02.101Z,101943.72
2023-04-17T10:46:33.600Z,101941.00
2023-04-17T10:49:05.466Z,101940.59
2023-04-17T10:51:36.937Z,101933.19
2023-04-17T10:54:08.600Z,101929.50
2023-04-17T10:56:40.055Z,101936.91
2023-04-17T10:59:12.148Z,101941.75
2023-04-17T11:01:43.868Z,101934.38
2023-04-17T11:04:15.815Z,101940.00
2023-04-17T11:06:47.390Z,101937.53
2023-04-17T11:09:19.187Z,101950.09
2023-04-17T11:11:50.646Z,101954.13
2023-04-17T11:14:22.513Z,101953.94
2023-04-17T11:16:54.002Z,101954.75
2023-04-17T11:19:26.006Z,101952.88
2023-04-17T11:21:57.503Z,101952.75
2023-04-17T11:24:29.008Z,101947.84
2023-04-17T11:27:00.554Z,101950.59
2023-04-17T11:29:32.408Z,101950.25
2023-04-17T11:32:03.865Z,101949.97
2023-04-17T11:34:35.393Z,101959.47
2023-04-17T11:37:06.879Z,101948.03
2023-04-17T11:39:38.341Z,101951.06
2023-04-17T11:42:09.797Z,101950.72
2023-04-17T11:44:41.653Z,101951.31
2023-04-17T11:47:13.127Z,101958.81
2023-04-17T11:49:44.617Z,101958.97
2023-04-17T11:52:17.640Z,101966.69
2023-04-17T11:54:49.507Z,101960.34
2023-04-17T11:57:20.959Z,101959.66
2023-04-17T11:59:52.432Z,101968.34
2023-04-17T12:02:23.981Z,101970.81
2023-04-17T12:04:57.206Z,101962.00
2023-04-17T12:07:28.734Z,101961.19
2023-04-17T12:10:00.619Z,101964.72
2023-04-17T12:12:32.075Z,101960.00
2023-04-17T12:15:03.603Z,101965.78
2023-04-17T12:17:35.129Z,101966.59
2023-04-17T12:20:06.942Z,101963.31
2023-04-17T12:22:38.406Z,101966.59
2023-04-17T12:25:10.168Z,101969.44
2023-04-17T12:27:41.620Z,101977.16
2023-04-17T12:30:13.269Z,101964.75
2023-04-17T12:32:44.769Z,101974.03
2023-04-17T12:35:16.288Z,101966.56
2023-04-17T12:37:47.766Z,101973.16
2023-04-17T12:40:20.772Z,101970.56
2023-04-17T12:42:53.282Z,101976.81
2023-04-17T12:45:25.144Z,101974.63
2023-04-17T12:47:56.769Z,101974.13
2023-04-17T12:50:28.620Z,101973.69
2023-04-17T12:53:00.165Z,101981.63
2023-04-17T12:55:38.058Z,101978.97
2023-04-17T12:58:09.767Z,101989.38
2023-04-17T13:00:41.263Z,101988.22
2023-04-17T13:03:12.881Z,101991.47
2023-04-17T13:05:45.515Z,101982.50
2023-04-17T13:08:17.353Z,101991.13
2023-04-17T13:10:48.822Z,101987.31
2023-04-17T13:13:20.305Z,101986.44
2023-04-17T13:15:51.783Z,102000.03
2023-04-17T13:18:23.686Z,101987.63
2023-04-17T13:20:55.169Z,101991.91
2023-04-17T13:23:26.970Z,101990.56
2023-04-17T13:25:58.466Z,101998.56
2023-04-17T13:28:29.935Z,101997.94
2023-04-17T13:31:01.477Z,102003.97
2023-04-17T13:33:33.338Z,102001.78
2023-04-17T13:36:04.795Z,102006.25
2023-04-17T13:38:36.274Z,101999.88
2023-04-17T13:41:07.722Z,102004.47
2023-04-17T13:43:39.560Z,102000.34
2023-04-17T13:46:11.068Z,101817.53
2023-04-17T13:48:42.570Z,102004.81
2023-04-17T13:51:14.054Z,102003.38
2023-04-17T13:53:45.871Z,102003.13
2023-04-17T13:56:17.339Z,102000.44
2023-04-17T13:58:48.802Z,101998.59
2023-04-17T14:01:20.327Z,101992.16
2023-04-17T14:03:51.968Z,101997.84
2023-04-17T14:06:23.522Z,101996.31
2023-04-17T14:08:55.017Z,101997.22
2023-04-17T14:11:26.477Z,101994.91
2023-04-17T14:13:58.016Z,101993.00
2023-04-17T14:16:29.594Z,101990.81
2023-04-17T14:19:09.690Z,101996.94
2023-04-17T14:21:44.563Z,101986.38
2023-04-17T14:24:16.439Z,101992.06
2023-04-17T14:26:47.902Z,101991.69
2023-04-17T14:29:19.399Z,101990.88
2023-04-17T14:31:50.921Z,101998.25
2023-04-17T14:34:22.498Z,101994.09
2023-04-17T14:39:25.771Z,101998.22
2023-04-17T14:41:58.852Z,101991.88
2023-04-17T14:44:31.185Z,101994.53
2023-04-17T14:47:02.752Z,101989.38
2023-04-17T14:49:34.527Z,101807.34
2023-04-17T14:52:05.968Z,101995.25
2023-04-17T14:54:37.441Z,101997.41
2023-04-17T14:57:08.911Z,101999.44
2023-04-17T14:59:40.649Z,102000.41
2023-04-17T15:02:12.135Z,101993.22
2023-04-17T15:04:44.083Z,102001.09
2023-04-17T15:07:15.646Z,101999.69
2023-04-17T15:09:47.134Z,101997.00
2023-04-17T15:12:18.664Z,101991.81
2023-04-17T15:14:50.131Z,101998.63
2023-04-17T15:17:21.855Z,101995.63
2023-04-17T15:19:53.405Z,101997.28
2023-04-17T15:22:25.340Z,101992.16
2023-04-17T15:24:56.825Z,102000.31
2023-04-17T15:27:28.322Z,102002.78
2023-04-17T15:29:59.760Z,102002.47
2023-04-17T15:32:32.618Z,102003.31
2023-04-17T15:35:04.162Z,102004.97
2023-04-17T15:37:35.650Z,102000.41
2023-04-17T15:40:07.123Z,102006.31
2023-04-17T15:42:38.931Z,101999.69
2023-04-17T15:45:10.416Z,102000.53
2023-04-17T15:47:42.262Z,102005.66
2023-04-17T15:50:13.745Z,102005.66
2023-04-17T15:52:45.729Z,102007.31
2023-04-17T15:55:17.203Z,102004.91
2023-04-17T15:57:48.868Z,102005.91
2023-04-17T16:00:20.326Z,102010.69
2023-04-17T16:02:52.150Z,102010.56
2023-04-17T16:05:24.005Z,102007.53
2023-04-17T16:07:55.493Z,102012.50
2023-04-17T16:10:26.949Z,102008.63
2023-04-17T16:12:58.780Z,102010.25
2023-04-17T16:15:30.266Z,102005.78
2023-04-17T16:18:02.080Z,102003.31
2023-04-17T16:20:33.565Z,102004.19
2023-04-17T16:23:05.252Z,102007.66
2023-04-17T16:25:36.781Z,102008.91
2023-04-17T16:28:08.564Z,102010.94
2023-04-17T16:30:40.014Z,102002.50
2023-04-17T16:33:11.867Z,102004.72
2023-04-17T16:35:43.337Z,102011.00
2023-04-17T16:38:15.135Z,102016.16
2023-04-17T16:40:46.619Z,102019.31
2023-04-17T16:43:18.284Z,102006.38
2023-04-17T16:45:49.741Z,102008.22
2023-04-17T16:48:21.739Z,102011.84
2023-04-17T16:50:53.263Z,102007.88
2023-04-17T16:53:24.954Z,102010.22
2023-04-17T16:55:57.054Z,102006.38
2023-04-17T16:58:28.636Z,102007.22
2023-04-17T17:01:00.150Z,102014.19
2023-04-17T17:03:32.063Z,102009.56
2023-04-17T17:06:03.522Z,102020.50
2023-04-17T17:08:35.327Z,102024.16
2023-04-17T17:11:06.774Z,102024.84
2023-04-17T17:13:38.576Z,102024.19
2023-04-17T17:16:10.114Z,102029.50
2023-04-17T17:18:41.936Z,102023.84
2023-04-17T17:21:13.734Z,102026.50
2023-04-17T17:23:45.212Z,102022.19
2023-04-17T17:26:16.999Z,102028.00
2023-04-17T17:28:48.491Z,102029.66
2023-04-17T17:31:20.440Z,102026.84
2023-04-17T17:33:53.072Z,102028.50
2023-04-17T17:36:25.083Z,102031.47
2023-04-17T17:38:56.596Z,102033.16
2023-04-17T17:41:28.366Z,102028.47
2023-04-17T17:43:59.823Z,102031.13
2023-04-17T17:46:31.444Z,102031.78
2023-04-17T17:49:03.012Z,102033.31
2023-04-17T17:51:34.745Z,102029.47
2023-04-17T17:54:06.239Z,102032.13
2023-04-17T17:56:38.030Z,102027.50
2023-04-17T17:59:19.173Z,102040.75
2023-04-17T18:01:50.708Z,102046.72
2023-04-17T18:04:22.461Z,102043.25
2023-04-17T18:06:54.060Z,102045.72
2023-04-17T18:09:25.572Z,102042.09
2023-04-17T18:11:57.071Z,102046.75
2023-04-17T18:14:28.521Z,102038.59
2023-04-17T18:17:00.087Z,102042.44
2023-04-17T18:19:31.528Z,102039.78
2023-04-17T18:22:03.289Z,102049.56
2023-04-17T18:24:34.822Z,102037.94
2023-04-17T18:27:06.334Z,102044.59
2023-04-17T18:29:37.798Z,102043.44
2023-04-17T18:32:09.628Z,102050.06
2023-04-17T18:34:41.112Z,102054.53
2023-04-17T18:37:12.766Z,102048.72
2023-04-17T18:39:44.233Z,102047.56
2023-04-17T18:42:15.973Z,102055.03
2023-04-17T18:44:47.442Z,102059.19
2023-04-17T18:47:19.377Z,102053.88
2023-04-17T18:49:50.886Z,102055.03
2023-04-17T18:52:22.707Z,102058.34
2023-04-17T18:54:54.158Z,102064.47
2023-04-17T18:57:26.034Z,102064.81
2023-04-17T18:59:57.566Z,102065.47
2023-04-17T19:02:29.428Z,102070.59
2023-04-17T19:05:00.923Z,102072.94
2023-04-17T19:07:32.771Z,102063.47
2023-04-17T19:10:04.412Z,102068.13
2023-04-17T19:12:36.270Z,102063.81
2023-04-17T19:15:07.801Z,102049.69
2023-04-17T19:17:39.596Z,102058.63
2023-04-17T19:20:11.048Z,102068.59
2023-04-17T19:22:42.835Z,102067.59
2023-04-17T19:25:14.319Z,102061.94
2023-04-17T19:27:46.159Z,102065.09
2023-04-17T19:30:17.611Z,102064.25
2023-04-17T19:32:49.133Z,102058.63
2023-04-17T19:35:20.593Z,102071.22
2023-04-17T19:37:52.056Z,102061.28
2023-04-17T19:40:25.555Z,102061.28
2023-04-17T19:42:57.893Z,102061.44
2023-04-17T19:45:29.401Z,102057.16
2023-04-17T19:48:01.135Z,102054.16
2023-04-17T19:50:32.913Z,102051.00
2023-04-17T19:53:04.677Z,102067.59
2023-04-17T19:55:36.483Z,102060.63
2023-04-17T19:58:07.980Z,102058.81
2023-04-17T20:00:39.661Z,102059.63
2023-04-17T20:03:11.298Z,102060.94
2023-04-17T20:05:43.380Z,102058.97
2023-04-17T20:08:14.826Z,102061.78
2023-04-17T20:10:46.636Z,102059.63
2023-04-17T20:13:18.101Z,102065.09
2023-04-17T20:15:49.588Z,102058.97
2023-04-17T20:18:21.127Z,102056.97
2023-04-17T20:20:52.824Z,102048.69
2023-04-17T20:23:24.303Z,102058.97
2023-04-17T20:25:56.088Z,102053.66
2023-04-17T20:28:27.544Z,102053.66
2023-04-17T20:30:59.412Z,102065.25
2023-04-17T20:33:30.961Z,102053.66
2023-04-17T20:36:02.663Z,102055.97
2023-04-17T20:38:34.118Z,102047.19
2023-04-17T20:41:05.870Z,102045.38
2023-04-17T20:43:37.311Z,102047.34
2023-04-17T20:46:09.166Z,102041.88
2023-04-17T20:48:40.694Z,102045.22
2023-04-17T20:51:12.658Z,102037.09
2023-04-17T20:53:44.130Z,102041.56
2023-04-17T20:56:15.952Z,102042.06
2023-04-17T20:58:47.412Z,102043.72
2023-04-17T21:01:19.160Z,102043.38
2023-04-17T21:03:50.726Z,102054.31
2023-04-17T21:06:22.702Z,102048.34
2023-04-17T21:08:54.167Z,102056.81
2023-04-17T21:11:26.117Z,102061.94
2023-04-17T21:13:57.581Z,102064.75
2023-04-17T21:16:29.417Z,102060.63
2023-04-17T21:19:00.893Z,102061.78
2023-04-17T21:21:32.660Z,102053.66
2023-04-17T21:24:04.114Z,102063.75
2023-04-17T21:26:35.939Z,102064.59
2023-04-17T21:29:07.397Z,102063.94
2023-04-17T21:31:39.139Z,102071.72
2023-04-17T21:34:10.806Z,102069.56
2023-04-17T21:36:42.827Z,102073.88
2023-04-17T21:39:14.311Z,102073.88
2023-04-17T21:41:46.058Z,102072.56
2023-04-17T21:44:17.537Z,102068.25
2023-04-17T21:49:44.916Z,102080.84
2023-04-17T21:52:16.762Z,102075.53
2023-04-17T21:54:48.249Z,102075.19
2023-04-17T21:57:20.056Z,102084.81
2023-04-17T21:59:51.531Z,102079.50
2023-04-17T22:02:23.331Z,102078.84
2023-04-17T22:04:54.913Z,102076.53
2023-04-17T22:07:26.383Z,102079.16
2023-04-17T22:09:57.851Z,102081.16
2023-04-17T22:12:29.535Z,102080.84
2023-04-17T22:15:00.980Z,102085.47
2023-04-17T22:17:32.508Z,102090.09
2023-04-17T22:20:04.023Z,102090.44
2023-04-17T22:22:35.874Z,102090.09
2023-04-17T22:25:07.346Z,102093.25
2023-04-17T22:27:39.071Z,102102.69
2023-04-17T22:30:10.490Z,102094.41
2023-04-17T22:32:42.310Z,102096.06
2023-04-17T22:35:13.838Z,102094.22
2023-04-17T22:37:45.638Z,102097.38
2023-04-17T22:40:17.111Z,102088.25
2023-04-17T22:42:48.934Z,102092.75
2023-04-17T22:45:20.433Z,102099.38
2023-04-17T22:47:51.956Z,102106.34
2023-04-17T22:50:23.433Z,102099.19
2023-04-17T22:52:54.887Z,102105.31
2023-04-17T22:55:26.327Z,102104.97
2023-04-17T22:57:58.090Z,102100.50
2023-04-17T23:00:29.533Z,102109.59
2023-04-17T23:03:01.418Z,102103.59
2023-04-17T23:05:33.014Z,102112.94
2023-04-17T23:08:04.827Z,102106.59
2023-04-17T23:10:36.269Z,102111.06
2023-04-17T23:13:07.961Z,102108.56
2023-04-17T23:15:39.442Z,102110.53
2023-04-17T23:18:11.287Z,102112.03
2023-04-17T23:20:42.776Z,102116.69
2023-04-17T23:23:14.434Z,102108.25
2023-04-17T23:25:45.935Z,102114.53
2023-04-17T23:28:17.711Z,102111.88
2023-04-17T23:30:49.184Z,102114.53
2023-04-17T23:33:20.899Z,102106.59
2023-04-17T23:35:52.372Z,102109.88
2023-04-17T23:38:24.014Z,102112.84
2023-04-17T23:40:55.499Z,102118.16
2023-04-17T23:43:26.950Z,102108.22
2023-04-17T23:45:58.628Z,102107.53
2023-04-17T23:48:30.168Z,102108.53
2023-04-17T23:51:01.998Z,102113.31
2023-04-17T23:53:33.469Z,102109.84
2023-04-17T23:56:05.270Z,102117.78
2023-04-17T23:58:36.712Z,102110.69
